Terminal Aerodrome Forecast
Issued by NWS

Current Version | Previous Version | Text Only | Print | Product List | Glossary On
Versions: 1 2 3 4 5 6 7 8 9 10 11 12 13 14 15 16 17 18 19 20 21 22 23
000
FTUS44 KBMX 241500 AAA
TAFTOI
TAF AMD
KTOI 241529Z 2415/2512 22008KT P6SM BKN015
      TEMPO 2415/2418 SCT015
     FM241800 27009KT P6SM BKN025
      TEMPO 2419/2423 SCT025
     FM242300 31007KT P6SM SCT150=

USA.gov is the U.S. government's official web portal to all federal, state and local government web resources and services.